sensor_id;sensor_type;location;lat;lon;timestamp;temperature;humidity
29201;DHT22;16244;51.956;12.980;2022-10-14T00:02:18;8.30;99.90
29201;DHT22;16244;51.956;12.980;2022-10-14T00:04:45;8.30;99.90
29201;DHT22;16244;51.956;12.980;2022-10-14T00:07:14;8.20;99.90
29201;DHT22;16244;51.956;12.980;2022-10-14T00:09:42;8.20;99.90
29201;DHT22;16244;51.956;12.980;2022-10-14T00:12:09;8.20;99.90
29201;DHT22;16244;51.956;12.980;2022-10-14T00:14:36;8.10;99.90
29201;DHT22;16244;51.956;12.980;2022-10-14T00:17:03;8.10;99.90
29201;DHT22;16244;51.956;12.980;2022-10-14T00:19:30;8.00;99.90
29201;DHT22;16244;51.956;12.980;2022-10-14T00:21:57;8.00;99.90
29201;DHT22;16244;51.956;12.980;2022-10-14T00:24:25;8.00;99.90
29201;DHT22;16244;51.956;12.980;2022-10-14T00:26:52;8.00;99.90
29201;DHT22;16244;51.956;12.980;2022-10-14T00:29:19;8.10;99.90
29201;DHT22;16244;51.956;12.980;2022-10-14T00:31:47;8.10;99.90
29201;DHT22;16244;51.956;12.980;2022-10-14T00:34:16;8.10;99.90
29201;DHT22;16244;51.956;12.980;2022-10-14T00:36:44;8.10;99.90
29201;DHT22;16244;51.956;12.980;2022-10-14T00:39:11;8.20;99.90
29201;DHT22;16244;51.956;12.980;2022-10-14T00:41:40;8.20;99.90
29201;DHT22;16244;51.956;12.980;2022-10-14T00:47:14;8.20;99.90
29201;DHT22;16244;51.956;12.980;2022-10-14T00:49:42;8.30;99.90
29201;DHT22;16244;51.956;12.980;2022-10-14T00:52:12;8.40;99.90
29201;DHT22;16244;51.956;12.980;2022-10-14T00:54:43;8.40;99.90
29201;DHT22;16244;51.956;12.980;2022-10-14T00:57:12;8.60;99.90
29201;DHT22;16244;51.956;12.980;2022-10-14T00:59:40;8.70;99.90
29201;DHT22;16244;51.956;12.980;2022-10-14T01:02:08;8.80;99.90
29201;DHT22;16244;51.956;12.980;2022-10-14T01:04:38;9.00;99.90
29201;DHT22;16244;51.956;12.980;2022-10-14T01:07:10;9.10;99.90
29201;DHT22;16244;51.956;12.980;2022-10-14T01:09:43;9.20;99.90
29201;DHT22;16244;51.956;12.980;2022-10-14T01:12:23;9.30;99.90
29201;DHT22;16244;51.956;12.980;2022-10-14T01:14:56;9.40;99.90
29201;DHT22;16244;51.956;12.980;2022-10-14T01:17:32;9.40;99.90
29201;DHT22;16244;51.956;12.980;2022-10-14T01:20:25;9.40;99.90
29201;DHT22;16244;51.956;12.980;2022-10-14T01:23:06;9.50;99.90
29201;DHT22;16244;51.956;12.980;2022-10-14T01:25:44;9.50;99.90
29201;DHT22;16244;51.956;12.980;2022-10-14T01:28:22;9.50;99.90
29201;DHT22;16244;51.956;12.980;2022-10-14T01:30:57;9.50;99.90
29201;DHT22;16244;51.956;12.980;2022-10-14T01:33:29;9.60;99.90
29201;DHT22;16244;51.956;12.980;2022-10-14T01:36:03;9.60;99.90
29201;DHT22;16244;51.956;12.980;2022-10-14T01:38:35;9.60;99.90
29201;DHT22;16244;51.956;12.980;2022-10-14T01:41:06;9.60;99.90
29201;DHT22;16244;51.956;12.980;2022-10-14T01:43:34;9.60;99.90
29201;DHT22;16244;51.956;12.980;2022-10-14T01:46:05;9.60;99.90
29201;DHT22;16244;51.956;12.980;2022-10-14T01:48:34;9.70;99.90
29201;DHT22;16244;51.956;12.980;2022-10-14T01:51:05;9.70;99.90
29201;DHT22;16244;51.956;12.980;2022-10-14T01:53:38;9.70;99.90
29201;DHT22;16244;51.956;12.980;2022-10-14T01:56:07;9.70;99.90
29201;DHT22;16244;51.956;12.980;2022-10-14T01:58:35;9.70;99.90
29201;DHT22;16244;51.956;12.980;2022-10-14T02:01:07;9.70;99.90
29201;DHT22;16244;51.956;12.980;2022-10-14T02:03:39;9.70;99.90
29201;DHT22;16244;51.956;12.980;2022-10-14T02:06:10;9.70;99.90
29201;DHT22;16244;51.956;12.980;2022-10-14T02:08:49;9.70;99.90
29201;DHT22;16244;51.956;12.980;2022-10-14T02:11:19;9.70;99.90
29201;DHT22;16244;51.956;12.980;2022-10-14T02:14:03;9.80;99.90
29201;DHT22;16244;51.956;12.980;2022-10-14T02:16:36;9.70;99.90
29201;DHT22;16244;51.956;12.980;2022-10-14T02:19:14;9.80;99.90
29201;DHT22;16244;51.956;12.980;2022-10-14T02:21:46;9.80;99.90
29201;DHT22;16244;51.956;12.980;2022-10-14T02:24:18;9.80;99.90
29201;DHT22;16244;51.956;12.980;2022-10-14T02:26:47;9.80;99.90
29201;DHT22;16244;51.956;12.980;2022-10-14T02:29:17;9.80;99.90
29201;DHT22;16244;51.956;12.980;2022-10-14T02:31:47;9.80;99.90
29201;DHT22;16244;51.956;12.980;2022-10-14T02:34:17;9.80;99.90
29201;DHT22;16244;51.956;12.980;2022-10-14T02:36:47;9.80;99.90
29201;DHT22;16244;51.956;12.980;2022-10-14T02:39:18;9.80;99.90
29201;DHT22;16244;51.956;12.980;2022-10-14T02:41:46;9.80;99.90
29201;DHT22;16244;51.956;12.980;2022-10-14T02:44:13;9.80;99.90
29201;DHT22;16244;51.956;12.980;2022-10-14T02:46:41;9.80;99.90
29201;DHT22;16244;51.956;12.980;2022-10-14T02:49:10;9.80;99.90
29201;DHT22;16244;51.956;12.980;2022-10-14T02:51:38;9.70;99.90
29201;DHT22;16244;51.956;12.980;2022-10-14T02:54:05;9.70;99.90
29201;DHT22;16244;51.956;12.980;2022-10-14T02:56:32;9.70;99.90
29201;DHT22;16244;51.956;12.980;2022-10-14T02:58:59;9.70;99.90
29201;DHT22;16244;51.956;12.980;2022-10-14T03:01:26;9.70;99.90
29201;DHT22;16244;51.956;12.980;2022-10-14T03:03:53;9.70;99.90
29201;DHT22;16244;51.956;12.980;2022-10-14T03:06:22;9.70;99.90
29201;DHT22;16244;51.956;12.980;2022-10-14T03:08:49;9.70;99.90
29201;DHT22;16244;51.956;12.980;2022-10-14T03:11:16;9.70;99.90
29201;DHT22;16244;51.956;12.980;2022-10-14T03:13:43;9.70;99.90
29201;DHT22;16244;51.956;12.980;2022-10-14T03:16:10;9.70;99.90
29201;DHT22;16244;51.956;12.980;2022-10-14T03:18:38;9.70;99.90
29201;DHT22;16244;51.956;12.980;2022-10-14T03:21:05;9.70;99.90
29201;DHT22;16244;51.956;12.980;2022-10-14T03:23:33;9.70;99.90
29201;DHT22;16244;51.956;12.980;2022-10-14T03:26:01;9.60;99.90
29201;DHT22;16244;51.956;12.980;2022-10-14T03:28:28;9.70;99.90
29201;DHT22;16244;51.956;12.980;2022-10-14T03:30:55;9.60;99.90
29201;DHT22;16244;51.956;12.980;2022-10-14T03:33:22;9.60;99.90
29201;DHT22;16244;51.956;12.980;2022-10-14T03:35:49;9.60;99.90
29201;DHT22;16244;51.956;12.980;2022-10-14T03:38:16;9.60;99.90
29201;DHT22;16244;51.956;12.980;2022-10-14T03:40:44;9.60;99.90
29201;DHT22;16244;51.956;12.980;2022-10-14T03:43:11;9.60;99.90
29201;DHT22;16244;51.956;12.980;2022-10-14T03:45:38;9.60;99.90
29201;DHT22;16244;51.956;12.980;2022-10-14T03:48:05;9.60;99.90
29201;DHT22;16244;51.956;12.980;2022-10-14T03:50:33;9.60;99.90
29201;DHT22;16244;51.956;12.980;2022-10-14T03:53:01;9.50;99.90
29201;DHT22;16244;51.956;12.980;2022-10-14T03:55:29;9.60;99.90
29201;DHT22;16244;51.956;12.980;2022-10-14T03:57:57;9.60;99.90
29201;DHT22;16244;51.956;12.980;2022-10-14T04:00:24;9.60;99.90
29201;DHT22;16244;51.956;12.980;2022-10-14T04:02:51;9.60;99.90
29201;DHT22;16244;51.956;12.980;2022-10-14T04:05:18;9.50;99.90
29201;DHT22;16244;51.956;12.980;2022-10-14T04:07:46;9.50;99.90
29201;DHT22;16244;51.956;12.980;2022-10-14T04:10:13;9.50;99.90
29201;DHT22;16244;51.956;12.980;2022-10-14T04:12:40;9.50;99.90
29201;DHT22;16244;51.956;12.980;2022-10-14T04:15:10;9.50;99.90
29201;DHT22;16244;51.956;12.980;2022-10-14T04:17:37;9.50;99.90
29201;DHT22;16244;51.956;12.980;2022-10-14T04:20:05;9.50;99.90
29201;DHT22;16244;51.956;12.980;2022-10-14T04:22:32;9.50;99.90
29201;DHT22;16244;51.956;12.980;2022-10-14T04:25:00;9.50;99.90
29201;DHT22;16244;51.956;12.980;2022-10-14T04:27:27;9.50;99.90
29201;DHT22;16244;51.956;12.980;2022-10-14T04:29:55;9.50;99.90
29201;DHT22;16244;51.956;12.980;2022-10-14T04:32:24;9.50;99.90
29201;DHT22;16244;51.956;12.980;2022-10-14T04:34:51;9.50;99.90
29201;DHT22;16244;51.956;12.980;2022-10-14T04:37:20;9.50;99.90
29201;DHT22;16244;51.956;12.980;2022-10-14T04:39:47;9.50;99.90
29201;DHT22;16244;51.956;12.980;2022-10-14T04:42:14;9.60;99.90
29201;DHT22;16244;51.956;12.980;2022-10-14T04:44:42;9.60;99.90
29201;DHT22;16244;51.956;12.980;2022-10-14T04:47:09;9.60;99.90
29201;DHT22;16244;51.956;12.980;2022-10-14T04:49:37;9.60;99.90
29201;DHT22;16244;51.956;12.980;2022-10-14T04:52:04;9.60;99.90
29201;DHT22;16244;51.956;12.980;2022-10-14T04:54:31;9.60;99.90
29201;DHT22;16244;51.956;12.980;2022-10-14T04:56:58;9.60;99.90
29201;DHT22;16244;51.956;12.980;2022-10-14T04:59:26;9.60;99.90
29201;DHT22;16244;51.956;12.980;2022-10-14T05:01:53;9.60;99.90
29201;DHT22;16244;51.956;12.980;2022-10-14T05:04:20;9.50;99.90
29201;DHT22;16244;51.956;12.980;2022-10-14T05:06:48;9.50;99.90
29201;DHT22;16244;51.956;12.980;2022-10-14T05:09:16;9.50;99.90
29201;DHT22;16244;51.956;12.980;2022-10-14T05:11:43;9.40;99.90
29201;DHT22;16244;51.956;12.980;2022-10-14T05:14:10;9.40;99.90
29201;DHT22;16244;51.956;12.980;2022-10-14T05:16:37;9.30;99.90
29201;DHT22;16244;51.956;12.980;2022-10-14T05:19:04;9.10;99.90
29201;DHT22;16244;51.956;12.980;2022-10-14T05:21:31;9.10;99.90
29201;DHT22;16244;51.956;12.980;2022-10-14T05:23:59;9.00;99.90
29201;DHT22;16244;51.956;12.980;2022-10-14T05:26:27;9.00;99.90
29201;DHT22;16244;51.956;12.980;2022-10-14T05:28:54;9.10;99.90
29201;DHT22;16244;51.956;12.980;2022-10-14T05:31:21;9.00;99.90
29201;DHT22;16244;51.956;12.980;2022-10-14T05:33:48;9.00;99.90
29201;DHT22;16244;51.956;12.980;2022-10-14T05:36:15;9.00;99.90
29201;DHT22;16244;51.956;12.980;2022-10-14T05:38:42;9.00;99.90
29201;DHT22;16244;51.956;12.980;2022-10-14T05:41:11;9.00;99.90
29201;DHT22;16244;51.956;12.980;2022-10-14T05:43:38;9.00;99.90
29201;DHT22;16244;51.956;12.980;2022-10-14T05:46:05;9.00;99.90
29201;DHT22;16244;51.956;12.980;2022-10-14T05:48:32;9.10;99.90
29201;DHT22;16244;51.956;12.980;2022-10-14T05:50:59;9.10;99.90
29201;DHT22;16244;51.956;12.980;2022-10-14T05:53:28;9.10;99.90
29201;DHT22;16244;51.956;12.980;2022-10-14T05:56:00;9.20;99.90
29201;DHT22;16244;51.956;12.980;2022-10-14T05:58:29;9.20;99.90
29201;DHT22;16244;51.956;12.980;2022-10-14T06:00:58;9.20;99.90
29201;DHT22;16244;51.956;12.980;2022-10-14T06:03:25;9.10;99.90
29201;DHT22;16244;51.956;12.980;2022-10-14T06:05:52;9.10;99.90
29201;DHT22;16244;51.956;12.980;2022-10-14T06:08:20;9.10;99.90
29201;DHT22;16244;51.956;12.980;2022-10-14T06:10:47;9.10;99.90
29201;DHT22;16244;51.956;12.980;2022-10-14T06:13:14;9.20;99.90
29201;DHT22;16244;51.956;12.980;2022-10-14T06:15:42;9.10;99.90
29201;DHT22;16244;51.956;12.980;2022-10-14T06:18:10;9.20;99.90
29201;DHT22;16244;51.956;12.980;2022-10-14T06:20:37;9.20;99.90
29201;DHT22;16244;51.956;12.980;2022-10-14T06:23:04;9.30;99.90
29201;DHT22;16244;51.956;12.980;2022-10-14T06:25:32;9.30;99.90
29201;DHT22;16244;51.956;12.980;2022-10-14T06:28:01;9.40;99.90
29201;DHT22;16244;51.956;12.980;2022-10-14T06:30:28;9.40;99.90
29201;DHT22;16244;51.956;12.980;2022-10-14T06:32:56;9.40;99.90
29201;DHT22;16244;51.956;12.980;2022-10-14T06:35:23;9.50;99.90
29201;DHT22;16244;51.956;12.980;2022-10-14T06:37:51;9.50;99.90
29201;DHT22;16244;51.956;12.980;2022-10-14T06:40:19;9.50;99.90
29201;DHT22;16244;51.956;12.980;2022-10-14T06:42:46;9.60;99.90
29201;DHT22;16244;51.956;12.980;2022-10-14T06:45:14;9.60;99.90
29201;DHT22;16244;51.956;12.980;2022-10-14T06:47:41;9.60;99.90
29201;DHT22;16244;51.956;12.980;2022-10-14T06:50:10;9.60;99.90
29201;DHT22;16244;51.956;12.980;2022-10-14T06:52:37;9.60;99.90
29201;DHT22;16244;51.956;12.980;2022-10-14T06:55:05;9.80;99.90
29201;DHT22;16244;51.956;12.980;2022-10-14T06:57:32;10.00;99.90
29201;DHT22;16244;51.956;12.980;2022-10-14T06:59:59;10.20;99.90
29201;DHT22;16244;51.956;12.980;2022-10-14T07:02:26;10.40;99.90
29201;DHT22;16244;51.956;12.980;2022-10-14T07:04:53;10.50;99.90
29201;DHT22;16244;51.956;12.980;2022-10-14T07:07:22;10.60;99.90
29201;DHT22;16244;51.956;12.980;2022-10-14T07:09:49;10.70;99.90
29201;DHT22;16244;51.956;12.980;2022-10-14T07:12:16;10.70;99.90
29201;DHT22;16244;51.956;12.980;2022-10-14T07:14:43;10.90;99.90
29201;DHT22;16244;51.956;12.980;2022-10-14T07:17:10;10.90;99.90
29201;DHT22;16244;51.956;12.980;2022-10-14T07:19:37;11.10;99.90
29201;DHT22;16244;51.956;12.980;2022-10-14T07:22:05;11.20;99.90
29201;DHT22;16244;51.956;12.980;2022-10-14T07:24:33;11.30;99.90
29201;DHT22;16244;51.956;12.980;2022-10-14T07:27:01;11.30;99.90
29201;DHT22;16244;51.956;12.980;2022-10-14T07:29:29;11.50;99.90
29201;DHT22;16244;51.956;12.980;2022-10-14T07:31:56;11.60;99.90
29201;DHT22;16244;51.956;12.980;2022-10-14T07:34:24;11.70;99.90
29201;DHT22;16244;51.956;12.980;2022-10-14T07:36:51;11.80;99.90
29201;DHT22;16244;51.956;12.980;2022-10-14T07:39:19;11.90;99.90
29201;DHT22;16244;51.956;12.980;2022-10-14T07:41:47;11.90;99.90
29201;DHT22;16244;51.956;12.980;2022-10-14T07:44:15;12.00;99.90
29201;DHT22;16244;51.956;12.980;2022-10-14T07:46:43;12.00;99.90
29201;DHT22;16244;51.956;12.980;2022-10-14T07:49:12;12.10;99.90
29201;DHT22;16244;51.956;12.980;2022-10-14T07:51:40;12.10;99.90
29201;DHT22;16244;51.956;12.980;2022-10-14T07:54:10;12.10;99.90
29201;DHT22;16244;51.956;12.980;2022-10-14T07:56:39;12.10;99.90
29201;DHT22;16244;51.956;12.980;2022-10-14T07:59:08;12.10;99.90
29201;DHT22;16244;51.956;12.980;2022-10-14T08:01:35;12.10;99.90
29201;DHT22;16244;51.956;12.980;2022-10-14T08:04:03;12.10;99.90
29201;DHT22;16244;51.956;12.980;2022-10-14T08:06:30;12.20;99.90
29201;DHT22;16244;51.956;12.980;2022-10-14T08:08:57;12.30;99.90
29201;DHT22;16244;51.956;12.980;2022-10-14T08:11:26;12.40;99.90
29201;DHT22;16244;51.956;12.980;2022-10-14T08:13:54;12.50;99.90
29201;DHT22;16244;51.956;12.980;2022-10-14T08:16:24;12.70;99.90
29201;DHT22;16244;51.956;12.980;2022-10-14T08:18:53;12.90;99.90
29201;DHT22;16244;51.956;12.980;2022-10-14T08:21:21;13.00;99.90
29201;DHT22;16244;51.956;12.980;2022-10-14T08:23:48;13.00;99.90
29201;DHT22;16244;51.956;12.980;2022-10-14T08:26:21;13.10;99.90
29201;DHT22;16244;51.956;12.980;2022-10-14T08:28:49;13.10;99.90
29201;DHT22;16244;51.956;12.980;2022-10-14T08:31:17;13.20;99.90
29201;DHT22;16244;51.956;12.980;2022-10-14T08:33:45;13.30;99.90
29201;DHT22;16244;51.956;12.980;2022-10-14T08:36:13;13.40;99.90
29201;DHT22;16244;51.956;12.980;2022-10-14T08:38:40;13.60;99.90
29201;DHT22;16244;51.956;12.980;2022-10-14T08:41:21;13.80;99.90
29201;DHT22;16244;51.956;12.980;2022-10-14T08:43:53;14.10;99.90
29201;DHT22;16244;51.956;12.980;2022-10-14T08:46:29;14.40;99.90
29201;DHT22;16244;51.956;12.980;2022-10-14T08:49:04;14.50;99.90
29201;DHT22;16244;51.956;12.980;2022-10-14T08:51:32;14.60;99.90
29201;DHT22;16244;51.956;12.980;2022-10-14T08:54:04;14.70;99.90
29201;DHT22;16244;51.956;12.980;2022-10-14T08:56:35;14.80;99.90
29201;DHT22;16244;51.956;12.980;2022-10-14T08:59:06;14.90;99.90
29201;DHT22;16244;51.956;12.980;2022-10-14T09:01:42;15.00;99.90
29201;DHT22;16244;51.956;12.980;2022-10-14T09:04:13;15.30;99.90
29201;DHT22;16244;51.956;12.980;2022-10-14T09:06:43;15.50;99.90
29201;DHT22;16244;51.956;12.980;2022-10-14T09:09:15;15.50;99.90
29201;DHT22;16244;51.956;12.980;2022-10-14T09:11:45;15.50;99.90
29201;DHT22;16244;51.956;12.980;2022-10-14T09:14:18;15.50;99.90
29201;DHT22;16244;51.956;12.980;2022-10-14T09:16:48;15.50;99.90
29201;DHT22;16244;51.956;12.980;2022-10-14T09:19:22;15.50;99.90
29201;DHT22;16244;51.956;12.980;2022-10-14T09:21:54;15.50;99.90
29201;DHT22;16244;51.956;12.980;2022-10-14T09:24:24;15.70;99.90
29201;DHT22;16244;51.956;12.980;2022-10-14T09:26:53;16.00;99.90
29201;DHT22;16244;51.956;12.980;2022-10-14T09:29:25;16.80;99.90
29201;DHT22;16244;51.956;12.980;2022-10-14T09:31:55;17.30;99.90
29201;DHT22;16244;51.956;12.980;2022-10-14T09:34:29;17.60;99.90
29201;DHT22;16244;51.956;12.980;2022-10-14T09:37:05;18.00;99.90
29201;DHT22;16244;51.956;12.980;2022-10-14T09:39:38;18.50;99.90
29201;DHT22;16244;51.956;12.980;2022-10-14T09:42:13;18.70;99.90
29201;DHT22;16244;51.956;12.980;2022-10-14T09:44:41;18.80;99.90
29201;DHT22;16244;51.956;12.980;2022-10-14T09:47:11;18.90;99.90
29201;DHT22;16244;51.956;12.980;2022-10-14T09:49:41;19.20;99.90
29201;DHT22;16244;51.956;12.980;2022-10-14T09:52:20;19.40;99.90
29201;DHT22;16244;51.956;12.980;2022-10-14T09:54:52;19.90;99.90
29201;DHT22;16244;51.956;12.980;2022-10-14T09:57:20;20.40;99.90
29201;DHT22;16244;51.956;12.980;2022-10-14T09:59:50;20.40;99.90
29201;DHT22;16244;51.956;12.980;2022-10-14T10:02:22;19.90;99.90
29201;DHT22;16244;51.956;12.980;2022-10-14T10:04:51;19.20;99.90
29201;DHT22;16244;51.956;12.980;2022-10-14T10:07:30;18.50;99.90
29201;DHT22;16244;51.956;12.980;2022-10-14T10:10:01;17.90;99.90
29201;DHT22;16244;51.956;12.980;2022-10-14T10:12:31;17.60;99.90
29201;DHT22;16244;51.956;12.980;2022-10-14T10:15:01;17.50;99.90
29201;DHT22;16244;51.956;12.980;2022-10-14T10:17:31;17.30;99.90
29201;DHT22;16244;51.956;12.980;2022-10-14T10:20:18;17.10;99.90
29201;DHT22;16244;51.956;12.980;2022-10-14T10:22:45;17.00;99.90
29201;DHT22;16244;51.956;12.980;2022-10-14T10:25:23;16.90;99.90
29201;DHT22;16244;51.956;12.980;2022-10-14T10:28:00;16.80;99.90
29201;DHT22;16244;51.956;12.980;2022-10-14T10:49:04;17.20;99.90
29201;DHT22;16244;51.956;12.980;2022-10-14T10:51:41;17.20;99.90
29201;DHT22;16244;51.956;12.980;2022-10-14T10:54:22;17.20;99.90
29201;DHT22;16244;51.956;12.980;2022-10-14T10:56:52;17.10;99.90
29201;DHT22;16244;51.956;12.980;2022-10-14T10:59:41;17.00;99.90
29201;DHT22;16244;51.956;12.980;2022-10-14T11:02:40;17.00;99.90
29201;DHT22;16244;51.956;12.980;2022-10-14T11:05:17;17.10;99.90
29201;DHT22;16244;51.956;12.980;2022-10-14T11:07:56;17.20;99.90
29201;DHT22;16244;51.956;12.980;2022-10-14T11:10:51;17.20;99.90
29201;DHT22;16244;51.956;12.980;2022-10-14T11:13:45;17.20;99.90
29201;DHT22;16244;51.956;12.980;2022-10-14T11:16:21;17.20;99.90
29201;DHT22;16244;51.956;12.980;2022-10-14T11:19:05;17.30;99.90
29201;DHT22;16244;51.956;12.980;2022-10-14T11:21:42;17.40;99.90
29201;DHT22;16244;51.956;12.980;2022-10-14T11:24:15;17.40;99.90
29201;DHT22;16244;51.956;12.980;2022-10-14T11:26:56;17.40;99.90
29201;DHT22;16244;51.956;12.980;2022-10-14T11:29:54;17.40;99.90
29201;DHT22;16244;51.956;12.980;2022-10-14T11:32:33;17.30;99.90
29201;DHT22;16244;51.956;12.980;2022-10-14T11:35:16;17.30;99.90
29201;DHT22;16244;51.956;12.980;2022-10-14T11:37:59;17.40;99.90
29201;DHT22;16244;51.956;12.980;2022-10-14T11:40:33;17.40;99.90
29201;DHT22;16244;51.956;12.980;2022-10-14T11:43:15;17.30;99.90
29201;DHT22;16244;51.956;12.980;2022-10-14T11:45:49;17.30;99.90
29201;DHT22;16244;51.956;12.980;2022-10-14T11:48:33;17.20;99.90
29201;DHT22;16244;51.956;12.980;2022-10-14T11:51:08;17.20;99.90
29201;DHT22;16244;51.956;12.980;2022-10-14T11:53:46;17.10;99.90
29201;DHT22;16244;51.956;12.980;2022-10-14T11:56:28;17.00;99.90
29201;DHT22;16244;51.956;12.980;2022-10-14T11:59:01;17.00;99.90
29201;DHT22;16244;51.956;12.980;2022-10-14T12:01:30;17.10;99.90
29201;DHT22;16244;51.956;12.980;2022-10-14T12:04:01;17.10;99.90
29201;DHT22;16244;51.956;12.980;2022-10-14T12:06:34;17.00;99.90
29201;DHT22;16244;51.956;12.980;2022-10-14T12:09:09;17.00;99.90
29201;DHT22;16244;51.956;12.980;2022-10-14T12:11:44;17.00;99.90
29201;DHT22;16244;51.956;12.980;2022-10-14T12:14:16;16.90;99.90
29201;DHT22;16244;51.956;12.980;2022-10-14T12:16:45;16.90;99.90
29201;DHT22;16244;51.956;12.980;2022-10-14T12:19:16;17.00;99.90
29201;DHT22;16244;51.956;12.980;2022-10-14T12:21:51;17.00;99.90
29201;DHT22;16244;51.956;12.980;2022-10-14T12:24:24;17.00;99.90
29201;DHT22;16244;51.956;12.980;2022-10-14T12:26:55;17.00;99.90
29201;DHT22;16244;51.956;12.980;2022-10-14T12:29:25;17.00;99.90
29201;DHT22;16244;51.956;12.980;2022-10-14T12:32:15;16.90;99.90
29201;DHT22;16244;51.956;12.980;2022-10-14T12:34:45;16.90;99.90
29201;DHT22;16244;51.956;12.980;2022-10-14T12:40:32;16.90;99.90
29201;DHT22;16244;51.956;12.980;2022-10-14T12:43:04;17.00;99.90
29201;DHT22;16244;51.956;12.980;2022-10-14T12:45:46;17.00;99.90
29201;DHT22;16244;51.956;12.980;2022-10-14T12:48:16;17.10;99.90
29201;DHT22;16244;51.956;12.980;2022-10-14T12:50:45;17.10;99.90
29201;DHT22;16244;51.956;12.980;2022-10-14T12:53:20;17.20;99.90
29201;DHT22;16244;51.956;12.980;2022-10-14T12:55:52;17.30;99.90
29201;DHT22;16244;51.956;12.980;2022-10-14T12:58:24;17.30;99.90
29201;DHT22;16244;51.956;12.980;2022-10-14T13:00:58;17.30;99.90
29201;DHT22;16244;51.956;12.980;2022-10-14T13:03:29;17.30;99.90
29201;DHT22;16244;51.956;12.980;2022-10-14T13:06:25;17.20;99.90
29201;DHT22;16244;51.956;12.980;2022-10-14T13:09:28;17.20;99.90
29201;DHT22;16244;51.956;12.980;2022-10-14T13:15:03;17.20;99.90
29201;DHT22;16244;51.956;12.980;2022-10-14T13:17:42;17.30;99.90
29201;DHT22;16244;51.956;12.980;2022-10-14T13:20:48;17.40;99.90
29201;DHT22;16244;51.956;12.980;2022-10-14T13:23:26;17.60;99.90
29201;DHT22;16244;51.956;12.980;2022-10-14T13:26:05;17.60;99.90
29201;DHT22;16244;51.956;12.980;2022-10-14T13:28:37;17.60;99.90
29201;DHT22;16244;51.956;12.980;2022-10-14T13:31:11;17.60;99.90
29201;DHT22;16244;51.956;12.980;2022-10-14T13:33:42;17.50;99.90
29201;DHT22;16244;51.956;12.980;2022-10-14T13:36:15;17.50;99.90
29201;DHT22;16244;51.956;12.980;2022-10-14T13:38:46;17.40;99.90
29201;DHT22;16244;51.956;12.980;2022-10-14T13:41:19;17.30;99.90
29201;DHT22;16244;51.956;12.980;2022-10-14T13:43:52;17.30;99.90
29201;DHT22;16244;51.956;12.980;2022-10-14T13:46:26;17.30;99.90
29201;DHT22;16244;51.956;12.980;2022-10-14T13:48:56;17.30;99.90
29201;DHT22;16244;51.956;12.980;2022-10-14T13:51:27;17.20;99.90
29201;DHT22;16244;51.956;12.980;2022-10-14T13:53:56;17.30;99.90
29201;DHT22;16244;51.956;12.980;2022-10-14T13:56:26;17.30;99.90
29201;DHT22;16244;51.956;12.980;2022-10-14T13:58:54;17.30;99.90
29201;DHT22;16244;51.956;12.980;2022-10-14T14:01:27;17.30;99.90
29201;DHT22;16244;51.956;12.980;2022-10-14T14:03:57;17.30;99.90
29201;DHT22;16244;51.956;12.980;2022-10-14T14:06:25;17.30;99.90
29201;DHT22;16244;51.956;12.980;2022-10-14T14:08:57;17.30;99.90
29201;DHT22;16244;51.956;12.980;2022-10-14T14:11:26;17.30;99.90
29201;DHT22;16244;51.956;12.980;2022-10-14T14:13:56;17.30;99.90
29201;DHT22;16244;51.956;12.980;2022-10-14T14:16:29;17.30;99.90
29201;DHT22;16244;51.956;12.980;2022-10-14T14:18:56;17.30;99.90
29201;DHT22;16244;51.956;12.980;2022-10-14T14:21:26;17.30;99.90
29201;DHT22;16244;51.956;12.980;2022-10-14T14:23:56;17.20;99.90
29201;DHT22;16244;51.956;12.980;2022-10-14T14:26:27;17.20;99.90
29201;DHT22;16244;51.956;12.980;2022-10-14T14:28:55;17.10;99.90
29201;DHT22;16244;51.956;12.980;2022-10-14T14:31:26;17.10;99.90
29201;DHT22;16244;51.956;12.980;2022-10-14T14:33:57;17.10;99.90
29201;DHT22;16244;51.956;12.980;2022-10-14T14:36:27;17.10;99.90
29201;DHT22;16244;51.956;12.980;2022-10-14T14:38:56;17.00;99.90
29201;DHT22;16244;51.956;12.980;2022-10-14T14:41:25;16.90;99.90
29201;DHT22;16244;51.956;12.980;2022-10-14T14:43:55;16.90;99.90
29201;DHT22;16244;51.956;12.980;2022-10-14T14:46:29;16.80;99.90
29201;DHT22;16244;51.956;12.980;2022-10-14T14:48:58;16.70;99.90
29201;DHT22;16244;51.956;12.980;2022-10-14T14:51:31;16.60;99.90
29201;DHT22;16244;51.956;12.980;2022-10-14T14:54:00;16.40;99.90
29201;DHT22;16244;51.956;12.980;2022-10-14T14:56:30;16.30;99.90
29201;DHT22;16244;51.956;12.980;2022-10-14T14:59:02;16.20;99.90
29201;DHT22;16244;51.956;12.980;2022-10-14T15:01:34;16.10;99.90
29201;DHT22;16244;51.956;12.980;2022-10-14T15:04:03;16.10;99.90
29201;DHT22;16244;51.956;12.980;2022-10-14T15:06:32;16.00;99.90
29201;DHT22;16244;51.956;12.980;2022-10-14T15:09:09;15.90;99.90
29201;DHT22;16244;51.956;12.980;2022-10-14T15:11:47;15.80;99.90
29201;DHT22;16244;51.956;12.980;2022-10-14T15:14:26;15.70;99.90
29201;DHT22;16244;51.956;12.980;2022-10-14T15:16:56;15.60;99.90
29201;DHT22;16244;51.956;12.980;2022-10-14T15:19:34;15.60;99.90
29201;DHT22;16244;51.956;12.980;2022-10-14T15:22:09;15.40;99.90
29201;DHT22;16244;51.956;12.980;2022-10-14T15:24:55;15.40;99.90
29201;DHT22;16244;51.956;12.980;2022-10-14T15:27:35;15.30;99.90
29201;DHT22;16244;51.956;12.980;2022-10-14T15:30:47;15.20;99.90
29201;DHT22;16244;51.956;12.980;2022-10-14T15:33:20;15.10;99.90
29201;DHT22;16244;51.956;12.980;2022-10-14T15:35:53;15.00;99.90
29201;DHT22;16244;51.956;12.980;2022-10-14T15:38:21;15.00;99.90
29201;DHT22;16244;51.956;12.980;2022-10-14T15:40:48;15.00;99.90
29201;DHT22;16244;51.956;12.980;2022-10-14T15:43:17;14.90;99.90
29201;DHT22;16244;51.956;12.980;2022-10-14T15:45:46;14.90;99.90
29201;DHT22;16244;51.956;12.980;2022-10-14T15:48:37;14.90;99.90
29201;DHT22;16244;51.956;12.980;2022-10-14T15:51:04;14.80;99.90
29201;DHT22;16244;51.956;12.980;2022-10-14T15:53:32;14.70;99.90
29201;DHT22;16244;51.956;12.980;2022-10-14T15:55:59;14.50;99.90
29201;DHT22;16244;51.956;12.980;2022-10-14T15:58:26;14.50;99.90
29201;DHT22;16244;51.956;12.980;2022-10-14T16:00:53;14.40;99.90
29201;DHT22;16244;51.956;12.980;2022-10-14T16:03:20;14.30;99.90
29201;DHT22;16244;51.956;12.980;2022-10-14T16:05:49;14.20;99.90
29201;DHT22;16244;51.956;12.980;2022-10-14T16:08:17;14.20;99.90
29201;DHT22;16244;51.956;12.980;2022-10-14T16:10:44;14.00;99.90
29201;DHT22;16244;51.956;12.980;2022-10-14T16:13:13;13.90;99.90
29201;DHT22;16244;51.956;12.980;2022-10-14T16:15:46;13.90;99.90